createdAt,value
2023-03-20T00:02:11.136Z,97.80
2023-03-20T00:04:38.867Z,97.80
2023-03-20T00:07:05.850Z,97.60
2023-03-20T00:09:32.999Z,97.70
2023-03-20T00:12:00.298Z,97.70
2023-03-20T00:14:27.826Z,97.80
2023-03-20T00:16:54.728Z,97.80
2023-03-20T00:19:23.970Z,97.90
2023-03-20T00:21:52.756Z,97.90
2023-03-20T00:24:20.437Z,97.90
2023-03-20T00:26:49.083Z,97.90
2023-03-20T00:29:27.786Z,97.90
2023-03-20T00:31:55.510Z,97.90
2023-03-20T00:34:25.742Z,97.90
2023-03-20T00:36:53.802Z,97.90
2023-03-20T00:39:21.405Z,97.90
2023-03-20T00:41:52.938Z,97.90
2023-03-20T00:44:32.417Z,97.80
2023-03-20T00:47:16.771Z,97.80
2023-03-20T00:49:45.871Z,97.80
2023-03-20T00:52:19.308Z,97.70
2023-03-20T00:54:46.601Z,97.70
2023-03-20T00:57:24.618Z,97.70
2023-03-20T01:00:02.416Z,97.80
2023-03-20T01:02:31.411Z,97.80
2023-03-20T01:05:00.373Z,97.80
2023-03-20T01:07:27.898Z,97.80
2023-03-20T01:09:55.505Z,97.90
2023-03-20T01:12:22.725Z,97.90
2023-03-20T01:14:55.942Z,97.90
2023-03-20T01:17:25.651Z,97.90
2023-03-20T01:19:53.244Z,97.90
2023-03-20T01:22:20.647Z,97.90
2023-03-20T01:24:47.660Z,98.00
2023-03-20T01:27:17.437Z,98.00
2023-03-20T01:29:44.970Z,98.10
2023-03-20T01:32:18.110Z,98.10
2023-03-20T01:34:49.056Z,98.10
2023-03-20T01:37:27.879Z,98.10
2023-03-20T01:39:59.173Z,98.20
2023-03-20T01:42:26.972Z,98.20
2023-03-20T01:44:54.095Z,98.20
2023-03-20T01:47:24.684Z,98.50
2023-03-20T01:50:14.572Z,98.30
2023-03-20T01:52:41.741Z,98.30
2023-03-20T01:55:09.174Z,98.30
2023-03-20T01:57:38.301Z,98.30
2023-03-20T02:00:15.593Z,98.20
2023-03-20T02:02:45.003Z,98.30
2023-03-20T02:05:18.094Z,98.30
2023-03-20T02:07:51.131Z,98.20
2023-03-20T02:10:19.507Z,98.20
2023-03-20T02:13:04.047Z,98.00
2023-03-20T02:16:04.730Z,98.00
2023-03-20T02:18:57.456Z,97.90
2023-03-20T02:21:55.752Z,97.90
2023-03-20T02:24:29.870Z,97.90
2023-03-20T02:27:25.314Z,98.00
2023-03-20T02:30:17.736Z,97.90
2023-03-20T02:33:00.462Z,98.00
2023-03-20T02:35:43.326Z,98.00
2023-03-20T02:38:31.245Z,98.00
2023-03-20T02:41:26.997Z,98.00
2023-03-20T02:44:16.122Z,98.00
2023-03-20T02:47:03.183Z,98.00
2023-03-20T02:49:48.321Z,97.90
2023-03-20T02:52:36.653Z,97.90
2023-03-20T02:55:07.220Z,97.90
2023-03-20T02:57:56.494Z,97.90
2023-03-20T03:00:36.697Z,98.00
2023-03-20T03:03:41.512Z,97.90
2023-03-20T03:06:23.831Z,98.20
2023-03-20T03:08:56.162Z,97.90
2023-03-20T03:11:23.227Z,97.90
2023-03-20T03:13:55.900Z,97.80
2023-03-20T03:16:30.707Z,97.80
2023-03-20T03:19:23.302Z,97.80
2023-03-20T03:21:51.868Z,97.80
2023-03-20T03:24:39.858Z,97.80
2023-03-20T03:27:49.546Z,97.80
2023-03-20T03:30:22.106Z,97.90
2023-03-20T03:33:32.999Z,97.80
2023-03-20T03:36:11.190Z,97.80
2023-03-20T03:38:58.898Z,97.80
2023-03-20T03:41:36.123Z,97.80
2023-03-20T03:44:16.835Z,97.80
2023-03-20T03:46:58.102Z,97.80
2023-03-20T03:49:32.109Z,97.70
2023-03-20T03:52:04.203Z,97.70
2023-03-20T03:54:37.746Z,97.70
2023-03-20T03:57:37.219Z,97.80
2023-03-20T04:00:11.911Z,97.80
2023-03-20T04:02:46.940Z,97.70
2023-03-20T04:05:15.895Z,97.70
2023-03-20T04:07:48.893Z,97.70
2023-03-20T04:10:17.711Z,97.80
2023-03-20T04:12:45.910Z,97.80
2023-03-20T04:15:15.900Z,97.80
2023-03-20T04:17:44.006Z,97.80
2023-03-20T04:20:13.708Z,97.80
2023-03-20T04:22:41.005Z,97.80
2023-03-20T04:25:20.189Z,97.70
2023-03-20T04:27:48.734Z,97.70
2023-03-20T04:30:24.434Z,97.60
2023-03-20T04:33:10.708Z,97.60
2023-03-20T04:35:46.712Z,97.60
2023-03-20T04:38:16.499Z,97.70
2023-03-20T04:40:45.441Z,97.70
2023-03-20T04:43:12.978Z,97.80
2023-03-20T04:45:40.609Z,97.80
2023-03-20T04:48:08.661Z,97.70
2023-03-20T04:50:36.348Z,97.80
2023-03-20T04:53:04.497Z,97.80
2023-03-20T04:55:31.443Z,97.80
2023-03-20T04:57:58.533Z,97.80
2023-03-20T05:00:26.752Z,97.80
2023-03-20T05:02:53.850Z,97.80
2023-03-20T05:05:20.992Z,97.80
2023-03-20T05:07:48.280Z,97.80
2023-03-20T05:10:23.107Z,97.70
2023-03-20T05:12:58.129Z,97.70
2023-03-20T05:15:32.500Z,97.50
2023-03-20T05:18:28.582Z,97.40
2023-03-20T05:21:11.885Z,97.40
2023-03-20T05:23:57.419Z,97.50
2023-03-20T05:26:43.071Z,97.60
2023-03-20T05:29:38.250Z,97.60
2023-03-20T05:32:39.078Z,97.60
2023-03-20T05:35:12.388Z,97.50
2023-03-20T05:37:47.613Z,97.50
2023-03-20T05:40:33.451Z,97.60
2023-03-20T05:43:28.242Z,97.60
2023-03-20T05:46:14.167Z,97.70
2023-03-20T05:48:41.119Z,97.70
2023-03-20T05:51:27.321Z,97.70
2023-03-20T05:54:11.734Z,97.80
2023-03-20T05:56:41.641Z,97.80
2023-03-20T05:59:26.762Z,97.90
2023-03-20T06:02:12.658Z,98.00
2023-03-20T06:04:46.302Z,98.10
2023-03-20T06:07:33.625Z,98.30
2023-03-20T06:10:05.332Z,98.40
2023-03-20T06:12:32.843Z,98.50
2023-03-20T06:15:00.922Z,98.60
2023-03-20T06:17:30.482Z,98.70
2023-03-20T06:20:02.515Z,98.70
2023-03-20T06:22:30.639Z,98.80
2023-03-20T06:24:57.949Z,98.90
2023-03-20T06:27:31.623Z,98.90
2023-03-20T06:29:58.597Z,99.00
2023-03-20T06:32:31.149Z,99.00
2023-03-20T06:35:00.280Z,99.20
2023-03-20T06:37:27.271Z,99.20
2023-03-20T06:40:02.086Z,99.40
2023-03-20T06:42:30.283Z,99.40
2023-03-20T06:44:58.042Z,99.40
2023-03-20T06:47:43.285Z,99.50
2023-03-20T06:50:11.113Z,99.60
2023-03-20T06:52:38.692Z,99.60
2023-03-20T06:55:23.975Z,99.60
2023-03-20T06:57:51.130Z,99.60
2023-03-20T07:00:20.480Z,99.60
2023-03-20T07:02:49.032Z,99.70
2023-03-20T07:05:17.661Z,99.70
2023-03-20T07:07:45.270Z,99.60
2023-03-20T07:10:12.601Z,99.60
2023-03-20T07:12:41.659Z,99.50
2023-03-20T07:15:09.092Z,99.50
2023-03-20T07:17:36.260Z,99.50
2023-03-20T07:20:04.922Z,99.40
2023-03-20T07:22:31.848Z,99.40
2023-03-20T07:25:13.615Z,99.40
2023-03-20T07:27:41.324Z,99.30
2023-03-20T07:30:09.648Z,99.30
2023-03-20T07:32:38.104Z,99.20
2023-03-20T07:35:05.555Z,99.20
2023-03-20T07:37:33.427Z,99.20
2023-03-20T07:40:02.910Z,99.10
2023-03-20T07:42:34.429Z,99.00
2023-03-20T07:45:14.100Z,98.80
2023-03-20T07:47:48.698Z,98.90
2023-03-20T07:50:16.368Z,98.90
2023-03-20T07:52:49.124Z,99.00
2023-03-20T07:55:18.546Z,99.10
2023-03-20T07:57:47.730Z,99.10
2023-03-20T08:00:16.469Z,99.10
2023-03-20T08:02:45.215Z,99.10
2023-03-20T08:05:12.213Z,99.10
2023-03-20T08:07:39.242Z,99.10
2023-03-20T08:10:06.604Z,99.10
2023-03-20T08:12:33.571Z,99.00
2023-03-20T08:15:00.488Z,99.00
2023-03-20T08:17:27.579Z,98.80
2023-03-20T08:19:54.437Z,98.70
2023-03-20T08:22:21.409Z,98.50
2023-03-20T08:24:48.351Z,98.50
2023-03-20T08:27:15.313Z,98.40
2023-03-20T08:29:42.307Z,98.00
2023-03-20T08:32:09.397Z,97.90
2023-03-20T08:34:36.514Z,97.90
2023-03-20T08:37:05.055Z,97.70
2023-03-20T08:39:33.356Z,97.80
2023-03-20T08:42:01.350Z,97.70
2023-03-20T08:44:28.460Z,97.80
2023-03-20T08:46:56.549Z,97.60
2023-03-20T08:49:23.704Z,97.50
2023-03-20T08:51:50.906Z,97.50
2023-03-20T08:54:18.572Z,97.70
2023-03-20T08:56:46.435Z,97.50
2023-03-20T08:59:13.698Z,97.50
2023-03-20T09:01:49.915Z,97.60
2023-03-20T09:04:17.914Z,97.40
2023-03-20T09:06:45.058Z,97.40
2023-03-20T09:09:15.827Z,97.20
2023-03-20T09:11:43.213Z,96.70
2023-03-20T09:14:10.634Z,96.70
2023-03-20T09:16:37.860Z,96.50
2023-03-20T09:19:06.626Z,96.60
2023-03-20T09:21:33.658Z,96.40
2023-03-20T09:24:00.577Z,96.50
2023-03-20T09:26:27.636Z,96.30
2023-03-20T09:28:54.697Z,96.30
2023-03-20T09:31:23.150Z,96.40
2023-03-20T09:33:50.209Z,96.60
2023-03-20T09:36:17.490Z,96.00
2023-03-20T09:38:44.593Z,95.70
2023-03-20T09:41:20.546Z,95.40
2023-03-20T09:44:03.045Z,95.10
2023-03-20T09:46:30.147Z,95.20
2023-03-20T09:49:18.110Z,95.10
2023-03-20T09:52:01.521Z,95.00
2023-03-20T09:54:52.628Z,94.80
2023-03-20T09:57:46.029Z,94.90
2023-03-20T10:00:22.370Z,95.20
2023-03-20T10:03:03.345Z,95.40
2023-03-20T10:05:45.481Z,95.30
2023-03-20T10:08:18.955Z,95.00
2023-03-20T10:11:05.280Z,94.80
2023-03-20T10:13:38.352Z,94.60
2023-03-20T10:16:17.455Z,93.60
2023-03-20T10:18:54.586Z,93.70
2023-03-20T10:21:40.213Z,93.80
2023-03-20T10:24:23.205Z,93.90
2023-03-20T10:26:53.437Z,93.70
2023-03-20T10:29:42.296Z,93.60
2023-03-20T10:32:42.126Z,92.90
2023-03-20T10:35:33.459Z,92.50
2023-03-20T10:38:13.542Z,92.00
2023-03-20T10:40:42.503Z,91.50
2023-03-20T10:43:19.820Z,91.80
2023-03-20T10:45:54.556Z,91.90
2023-03-20T10:48:34.852Z,91.80
2023-03-20T10:51:03.500Z,91.50
2023-03-20T10:53:59.316Z,91.30
2023-03-20T10:56:44.141Z,90.90
2023-03-20T10:59:25.636Z,91.00
2023-03-20T11:01:53.050Z,90.90
2023-03-20T11:04:21.086Z,90.40
2023-03-20T11:07:00.995Z,90.30
2023-03-20T11:09:29.818Z,90.20
2023-03-20T11:11:59.692Z,89.80
2023-03-20T11:14:35.834Z,90.00
2023-03-20T11:17:04.846Z,89.80
2023-03-20T11:19:36.921Z,89.10
2023-03-20T11:22:10.039Z,89.30
2023-03-20T11:24:40.900Z,89.60
2023-03-20T11:27:11.535Z,89.30
2023-03-20T11:29:42.681Z,89.80
2023-03-20T11:32:23.666Z,89.10
2023-03-20T11:34:51.895Z,89.60
2023-03-20T11:37:29.044Z,89.40
2023-03-20T11:40:01.491Z,89.70
2023-03-20T11:42:30.685Z,90.00
2023-03-20T11:45:04.063Z,90.00
2023-03-20T11:47:36.170Z,90.10
2023-03-20T11:50:06.496Z,90.00
2023-03-20T11:52:39.106Z,90.00
2023-03-20T11:55:24.763Z,89.60
2023-03-20T11:57:56.058Z,88.90
2023-03-20T12:00:24.365Z,88.30
2023-03-20T12:02:51.622Z,88.00
2023-03-20T12:05:31.534Z,86.80
2023-03-20T12:08:07.804Z,84.70
2023-03-20T12:10:41.126Z,85.10
2023-03-20T12:13:20.170Z,85.20
2023-03-20T12:15:52.417Z,86.10
2023-03-20T12:18:52.781Z,85.60
2023-03-20T12:21:39.133Z,85.50
2023-03-20T12:24:29.912Z,85.00
2023-03-20T12:27:01.027Z,84.40
2023-03-20T12:29:50.727Z,83.20
2023-03-20T12:32:42.221Z,83.20
2023-03-20T12:35:26.564Z,83.30
2023-03-20T12:37:54.172Z,81.10
2023-03-20T12:40:43.745Z,79.80
2023-03-20T12:43:25.353Z,79.80
2023-03-20T12:46:14.525Z,80.20
2023-03-20T12:48:52.486Z,80.00
2023-03-20T12:51:44.073Z,80.30
2023-03-20T12:54:34.773Z,80.10
2023-03-20T12:57:23.367Z,80.80
2023-03-20T13:00:02.274Z,81.60
2023-03-20T13:02:41.325Z,79.50
2023-03-20T13:05:11.451Z,79.10
2023-03-20T13:07:50.506Z,76.00
2023-03-20T13:10:21.092Z,76.50
2023-03-20T13:13:03.218Z,77.40
2023-03-20T13:15:32.979Z,78.20
2023-03-20T13:17:59.859Z,78.40
2023-03-20T13:20:30.531Z,78.70
2023-03-20T13:23:08.590Z,78.20
2023-03-20T13:25:45.732Z,78.30
2023-03-20T13:28:50.165Z,78.10
2023-03-20T13:31:58.400Z,76.00
2023-03-20T13:34:54.109Z,73.10
2023-03-20T13:37:24.737Z,73.70
2023-03-20T13:40:01.180Z,75.10
2023-03-20T13:42:37.554Z,76.10
2023-03-20T13:45:19.231Z,76.90
2023-03-20T13:47:48.315Z,76.70
2023-03-20T13:50:29.414Z,76.20
2023-03-20T13:53:24.454Z,77.00
2023-03-20T13:56:21.030Z,77.80
2023-03-20T13:59:06.268Z,76.80
2023-03-20T14:01:49.378Z,76.10
2023-03-20T14:04:20.556Z,74.60
2023-03-20T14:06:54.858Z,74.30
2023-03-20T14:09:37.040Z,74.40
2023-03-20T14:12:10.915Z,75.40
2023-03-20T14:14:53.614Z,76.00
2023-03-20T14:17:29.369Z,76.40
2023-03-20T14:19:57.345Z,76.60
2023-03-20T14:22:29.710Z,75.90
2023-03-20T14:25:04.132Z,76.30
2023-03-20T14:27:44.305Z,76.50
2023-03-20T14:30:30.221Z,76.40
2023-03-20T14:33:23.600Z,75.60
2023-03-20T14:36:10.533Z,75.60
2023-03-20T14:38:54.475Z,75.10
2023-03-20T14:41:31.492Z,75.60
2023-03-20T14:44:06.252Z,75.90
2023-03-20T14:46:51.599Z,75.90
2023-03-20T14:49:34.669Z,76.00
2023-03-20T14:52:20.833Z,76.20
2023-03-20T14:54:55.201Z,75.90
2023-03-20T14:57:37.561Z,75.70
2023-03-20T15:00:23.657Z,74.80
2023-03-20T15:03:02.629Z,74.60
2023-03-20T15:05:33.914Z,74.80
2023-03-20T15:08:15.875Z,74.10
2023-03-20T15:10:49.955Z,73.10
2023-03-20T15:13:17.941Z,72.60
2023-03-20T15:16:05.201Z,73.20
2023-03-20T15:18:37.850Z,73.60
2023-03-20T15:21:11.386Z,73.50
2023-03-20T15:23:41.752Z,73.80
2023-03-20T15:26:08.933Z,73.10
2023-03-20T15:28:37.873Z,72.00
2023-03-20T15:31:06.934Z,72.50
2023-03-20T15:33:33.908Z,73.20
2023-03-20T15:36:19.498Z,74.30
2023-03-20T15:38:48.317Z,73.90
2023-03-20T15:41:26.178Z,74.60
2023-03-20T15:43:53.847Z,75.60
2023-03-20T15:46:27.234Z,76.10
2023-03-20T15:48:56.063Z,77.20
2023-03-20T15:51:26.589Z,78.50
2023-03-20T15:53:53.952Z,79.80
2023-03-20T15:56:26.412Z,81.10
2023-03-20T15:58:55.806Z,82.10
2023-03-20T16:01:25.288Z,82.70
2023-03-20T16:03:53.651Z,83.40
2023-03-20T16:06:22.428Z,84.00
2023-03-20T16:09:13.907Z,84.50
2023-03-20T16:11:43.557Z,84.90
2023-03-20T16:14:20.221Z,85.00
2023-03-20T16:16:51.093Z,85.50
2023-03-20T16:19:18.842Z,85.70
2023-03-20T16:22:15.066Z,86.40
2023-03-20T16:24:46.698Z,86.00
2023-03-20T16:27:20.802Z,86.00
2023-03-20T16:29:51.964Z,86.50
2023-03-20T16:32:42.009Z,86.70
2023-03-20T16:35:26.240Z,87.10
2023-03-20T16:37:56.338Z,87.00
2023-03-20T16:40:31.933Z,86.50
2023-03-20T16:43:15.402Z,86.50
2023-03-20T16:45:45.678Z,86.70
2023-03-20T16:48:12.812Z,86.70
2023-03-20T16:50:44.851Z,87.00
2023-03-20T16:53:19.524Z,87.20
2023-03-20T16:55:49.318Z,87.30
2023-03-20T16:58:32.810Z,87.60
2023-03-20T17:01:04.431Z,87.90
2023-03-20T17:03:44.588Z,88.30
2023-03-20T17:06:23.336Z,88.60
2023-03-20T17:09:01.915Z,89.50
2023-03-20T17:11:35.773Z,89.20
2023-03-20T17:14:04.382Z,89.40
2023-03-20T17:16:33.291Z,89.80
2023-03-20T17:19:01.580Z,90.10
2023-03-20T17:21:29.476Z,90.20
2023-03-20T17:23:56.379Z,90.40
2023-03-20T17:26:23.543Z,90.50
2023-03-20T17:28:51.191Z,90.70
2023-03-20T17:31:18.612Z,90.90
2023-03-20T17:33:46.453Z,91.00
2023-03-20T17:36:19.121Z,91.20
2023-03-20T17:38:46.482Z,91.40
2023-03-20T17:41:15.951Z,91.50
2023-03-20T17:43:43.380Z,91.70
2023-03-20T17:46:17.745Z,91.90
2023-03-20T17:48:45.788Z,92.20
2023-03-20T17:51:12.842Z,92.30
2023-03-20T17:53:39.897Z,92.40
2023-03-20T17:56:16.770Z,92.60
2023-03-20T17:58:46.520Z,92.80
2023-03-20T18:01:14.097Z,93.00
2023-03-20T18:03:41.227Z,93.10
2023-03-20T18:06:28.313Z,93.30
2023-03-20T18:08:56.954Z,93.70
2023-03-20T18:11:24.603Z,93.40
2023-03-20T18:13:51.750Z,93.40
2023-03-20T18:16:24.260Z,93.40
2023-03-20T18:18:52.617Z,93.40
2023-03-20T18:21:20.126Z,93.40
2023-03-20T18:23:47.350Z,93.50
2023-03-20T18:26:23.647Z,93.60
2023-03-20T18:28:52.759Z,93.80
2023-03-20T18:31:20.038Z,93.90
2023-03-20T18:33:51.943Z,94.00
2023-03-20T18:36:21.461Z,94.20
2023-03-20T18:38:48.946Z,94.30
2023-03-20T18:41:15.922Z,94.30
2023-03-20T18:43:43.415Z,94.40
2023-03-20T18:46:19.079Z,94.40
2023-03-20T18:48:46.848Z,94.40
2023-03-20T18:51:14.334Z,94.40
2023-03-20T18:53:41.572Z,94.40
2023-03-20T18:56:15.860Z,94.40
2023-03-20T18:58:43.335Z,94.40
2023-03-20T19:01:14.725Z,94.30
2023-03-20T19:03:43.382Z,94.30
2023-03-20T19:06:15.372Z,94.40
2023-03-20T19:08:43.705Z,94.50
2023-03-20T19:11:15.114Z,94.60
2023-03-20T19:13:45.899Z,94.70
2023-03-20T19:16:35.151Z,94.80
2023-03-20T19:19:04.809Z,94.70
2023-03-20T19:21:33.779Z,94.60
2023-03-20T19:24:03.347Z,94.60
2023-03-20T19:26:32.299Z,94.60
2023-03-20T19:29:01.356Z,94.60
2023-03-20T19:31:29.857Z,94.70
2023-03-20T19:33:57.034Z,94.80
2023-03-20T19:36:32.508Z,94.90
2023-03-20T19:39:01.320Z,95.10
2023-03-20T19:41:29.307Z,95.10
2023-03-20T19:43:57.132Z,95.00
2023-03-20T19:46:39.848Z,95.00
2023-03-20T19:49:19.799Z,95.00
2023-03-20T19:51:48.297Z,95.00
2023-03-20T19:54:15.589Z,95.10
2023-03-20T19:56:42.587Z,95.20
2023-03-20T19:59:09.508Z,95.40
2023-03-20T20:01:36.589Z,95.50
2023-03-20T20:04:04.119Z,95.70
2023-03-20T20:06:32.987Z,96.10
2023-03-20T20:09:01.242Z,95.80
2023-03-20T20:11:28.856Z,96.00
2023-03-20T20:14:14.670Z,95.80
2023-03-20T20:16:45.955Z,95.80
2023-03-20T20:19:13.025Z,95.90
2023-03-20T20:24:27.712Z,96.10
2023-03-20T20:27:13.042Z,96.20
2023-03-20T20:29:43.304Z,96.20
2023-03-20T20:32:10.361Z,96.10
2023-03-20T20:38:14.035Z,96.30
2023-03-20T20:40:15.885Z,96.30
2023-03-20T20:42:43.355Z,96.30
2023-03-20T20:45:13.922Z,96.40
2023-03-20T20:47:42.141Z,96.30
2023-03-20T20:50:11.742Z,96.30
2023-03-20T20:52:41.672Z,96.40
2023-03-20T20:55:22.676Z,96.70
2023-03-20T20:57:57.897Z,96.50
2023-03-20T21:00:40.989Z,96.50
2023-03-20T21:03:12.711Z,96.30
2023-03-20T21:05:42.969Z,96.10
2023-03-20T21:08:12.078Z,96.00
2023-03-20T21:10:39.835Z,95.80
2023-03-20T21:13:08.306Z,95.80
2023-03-20T21:15:35.541Z,95.90
2023-03-20T21:18:02.738Z,95.90
2023-03-20T21:20:33.389Z,95.80
2023-03-20T21:23:00.492Z,95.60
2023-03-20T21:25:47.029Z,95.40
2023-03-20T21:28:15.240Z,95.20
2023-03-20T21:30:56.491Z,95.00
2023-03-20T21:33:31.229Z,95.00
2023-03-20T21:35:58.312Z,94.90
2023-03-20T21:41:13.308Z,94.90
2023-03-20T21:43:40.842Z,94.80
2023-03-20T21:55:06.043Z,94.90
2023-03-20T22:02:57.064Z,95.00
2023-03-20T22:06:03.473Z,95.10
2023-03-20T22:11:44.999Z,95.10
2023-03-20T22:17:36.465Z,95.20
2023-03-20T22:28:22.396Z,95.60
2023-03-20T22:31:19.344Z,95.20
2023-03-20T22:39:22.100Z,95.30
2023-03-20T22:42:22.320Z,95.40
2023-03-20T22:45:00.725Z,95.40
2023-03-20T22:47:14.379Z,95.50
2023-03-20T22:49:41.726Z,95.60
2023-03-20T22:52:24.502Z,95.70
2023-03-20T22:54:54.664Z,95.80
2023-03-20T22:57:26.585Z,95.70
2023-03-20T22:59:56.096Z,95.80
2023-03-20T23:02:23.056Z,95.80
2023-03-20T23:04:51.917Z,96.00
2023-03-20T23:07:20.002Z,95.90
2023-03-20T23:09:48.345Z,95.80
2023-03-20T23:12:15.494Z,95.80
2023-03-20T23:14:46.045Z,95.80
2023-03-20T23:17:14.718Z,95.80
2023-03-20T23:19:49.206Z,95.90
2023-03-20T23:22:19.400Z,95.90
2023-03-20T23:24:46.264Z,95.80
2023-03-20T23:27:13.306Z,95.80
2023-03-20T23:29:40.794Z,95.70
2023-03-20T23:32:07.883Z,95.70
2023-03-20T23:34:36.396Z,95.70
2023-03-20T23:37:03.704Z,95.70
2023-03-20T23:39:30.903Z,95.80
2023-03-20T23:42:12.013Z,95.80
2023-03-20T23:44:55.308Z,95.80
2023-03-20T23:47:27.683Z,95.80
2023-03-20T23:49:56.877Z,95.90
2023-03-20T23:52:23.802Z,96.10
2023-03-20T23:54:50.734Z,96.50
2023-03-20T23:57:17.885Z,96.30
2023-03-20T23:59:44.800Z,96.40
